Main page
METAR-TAF:

METAR-TAF

Airports :

Cambridge Airport

Cambridge, England

latitude: 52-12N, longitude: 000-11E, elevation: 15 m

Current weather observation

The report was made 14 hours and 50 minutes ago, at 16:50 UTC
Wind 9 kt from the West/Northwest
Temperature 11°C
Humidity 71%
Pressure 1001 hPa
Visibility 10 km or more
Scattered clouds at a height of 3200 ft

METAR: EGSC 041650Z 30009KT 9999 SCT032 11/06 Q1001

Time: 08:40 (07:40 UTC)

Forecast

The report was made 17 hours and 45 minutes ago, at 13:55 UTC
Forecast valid from 04 at 15 UTC to 04 at 17 UTC
Wind 11 kt from the West/Northwest
Visibility 10 km or more
Scattered clouds at a height of 3000 ft
Probability 30% :
Temporary
from 04 at 15 UTC to 04 at 17 UTC
Visibility: 7000 m
rain showers

TAF: EGSC 041355Z 0415/0417 30011KT 9999 SCT030 PROB30 TEMPO 0415/0417 7000 SHRA

Weather observations and forecasts of more than 4000 airports (METAR and TAF reports).

The available stations are represented by yellow and red dots on the map.

Hover mouse over dot to see the name of the station.

Then click to see weather observations and forecasts.

To change the map : click on the green buttons with a black cross to zoom in, on the green button with a dash to zoom out, or on the green arrows for adjacent maps.


METAR-TAF: